sensor_id;sensor_type;location;lat;lon;timestamp;P1;durP1;ratioP1;P2;durP2;ratioP2
69985;SDS011;57328;52.054;5.294;2023-03-12T00:01:25;11.25;;;4.75;;
69985;SDS011;57328;52.054;5.294;2023-03-12T00:03:55;11.52;;;4.32;;
69985;SDS011;57328;52.054;5.294;2023-03-12T00:06:22;14.00;;;4.40;;
69985;SDS011;57328;52.054;5.294;2023-03-12T00:08:50;10.02;;;4.22;;
69985;SDS011;57328;52.054;5.294;2023-03-12T00:11:20;10.88;;;4.68;;
69985;SDS011;57328;52.054;5.294;2023-03-12T00:13:48;9.73;;;4.45;;
69985;SDS011;57328;52.054;5.294;2023-03-12T00:16:15;9.77;;;4.35;;
69985;SDS011;57328;52.054;5.294;2023-03-12T00:18:42;9.40;;;4.25;;
69985;SDS011;57328;52.054;5.294;2023-03-12T00:21:09;12.75;;;4.68;;
69985;SDS011;57328;52.054;5.294;2023-03-12T00:23:37;10.20;;;4.75;;
69985;SDS011;57328;52.054;5.294;2023-03-12T00:26:05;13.90;;;4.63;;
69985;SDS011;57328;52.054;5.294;2023-03-12T00:28:33;9.18;;;4.10;;
69985;SDS011;57328;52.054;5.294;2023-03-12T00:31:01;13.82;;;4.13;;
69985;SDS011;57328;52.054;5.294;2023-03-12T00:33:28;13.05;;;4.75;;
69985;SDS011;57328;52.054;5.294;2023-03-12T00:35:58;9.23;;;3.60;;
69985;SDS011;57328;52.054;5.294;2023-03-12T00:38:26;12.57;;;4.65;;
69985;SDS011;57328;52.054;5.294;2023-03-12T00:40:53;11.00;;;4.38;;
69985;SDS011;57328;52.054;5.294;2023-03-12T00:43:20;11.50;;;3.97;;
69985;SDS011;57328;52.054;5.294;2023-03-12T00:45:47;10.32;;;4.38;;
69985;SDS011;57328;52.054;5.294;2023-03-12T00:48:15;12.02;;;4.35;;
69985;SDS011;57328;52.054;5.294;2023-03-12T00:50:42;12.63;;;4.80;;
69985;SDS011;57328;52.054;5.294;2023-03-12T00:53:09;10.80;;;4.20;;
69985;SDS011;57328;52.054;5.294;2023-03-12T00:55:36;11.10;;;4.45;;
69985;SDS011;57328;52.054;5.294;2023-03-12T00:58:03;10.23;;;4.32;;
69985;SDS011;57328;52.054;5.294;2023-03-12T01:00:30;14.23;;;4.22;;
69985;SDS011;57328;52.054;5.294;2023-03-12T01:02:58;10.13;;;4.15;;
69985;SDS011;57328;52.054;5.294;2023-03-12T01:05:25;10.77;;;4.38;;
69985;SDS011;57328;52.054;5.294;2023-03-12T01:07:52;10.15;;;4.60;;
69985;SDS011;57328;52.054;5.294;2023-03-12T01:10:20;9.73;;;3.83;;
69985;SDS011;57328;52.054;5.294;2023-03-12T01:12:47;11.75;;;4.40;;
69985;SDS011;57328;52.054;5.294;2023-03-12T01:15:15;11.23;;;3.90;;
69985;SDS011;57328;52.054;5.294;2023-03-12T01:17:43;12.07;;;4.35;;
69985;SDS011;57328;52.054;5.294;2023-03-12T01:20:10;10.13;;;4.63;;
69985;SDS011;57328;52.054;5.294;2023-03-12T01:22:37;9.95;;;3.55;;
69985;SDS011;57328;52.054;5.294;2023-03-12T01:25:05;11.77;;;4.25;;
69985;SDS011;57328;52.054;5.294;2023-03-12T01:27:32;12.38;;;4.15;;
69985;SDS011;57328;52.054;5.294;2023-03-12T01:30:00;10.73;;;3.72;;
69985;SDS011;57328;52.054;5.294;2023-03-12T01:32:27;10.45;;;4.13;;
69985;SDS011;57328;52.054;5.294;2023-03-12T01:34:54;9.18;;;4.07;;
69985;SDS011;57328;52.054;5.294;2023-03-12T01:37:21;9.25;;;4.60;;
69985;SDS011;57328;52.054;5.294;2023-03-12T01:39:48;10.00;;;4.57;;
69985;SDS011;57328;52.054;5.294;2023-03-12T01:42:16;10.48;;;4.10;;
69985;SDS011;57328;52.054;5.294;2023-03-12T01:47:16;10.15;;;3.80;;
69985;SDS011;57328;52.054;5.294;2023-03-12T01:49:43;11.60;;;4.10;;
69985;SDS011;57328;52.054;5.294;2023-03-12T01:52:15;13.05;;;4.00;;
69985;SDS011;57328;52.054;5.294;2023-03-12T01:54:48;9.32;;;3.75;;
69985;SDS011;57328;52.054;5.294;2023-03-12T01:57:17;10.15;;;3.45;;
69985;SDS011;57328;52.054;5.294;2023-03-12T01:59:51;8.63;;;3.75;;
69985;SDS011;57328;52.054;5.294;2023-03-12T02:02:18;8.70;;;4.10;;
69985;SDS011;57328;52.054;5.294;2023-03-12T02:04:55;9.30;;;3.20;;
69985;SDS011;57328;52.054;5.294;2023-03-12T02:07:25;6.85;;;2.70;;
69985;SDS011;57328;52.054;5.294;2023-03-12T02:09:52;8.88;;;3.65;;
69985;SDS011;57328;52.054;5.294;2023-03-12T02:12:19;7.05;;;3.00;;
69985;SDS011;57328;52.054;5.294;2023-03-12T02:14:46;10.25;;;3.10;;
69985;SDS011;57328;52.054;5.294;2023-03-12T02:17:14;9.70;;;3.70;;
69985;SDS011;57328;52.054;5.294;2023-03-12T02:19:47;9.93;;;4.18;;
69985;SDS011;57328;52.054;5.294;2023-03-12T02:22:17;6.78;;;3.20;;
69985;SDS011;57328;52.054;5.294;2023-03-12T02:24:47;9.27;;;3.17;;
69985;SDS011;57328;52.054;5.294;2023-03-12T02:27:16;16.67;;;3.22;;
69985;SDS011;57328;52.054;5.294;2023-03-12T02:29:43;8.13;;;3.50;;
69985;SDS011;57328;52.054;5.294;2023-03-12T02:32:14;11.55;;;3.33;;
69985;SDS011;57328;52.054;5.294;2023-03-12T02:34:43;7.93;;;3.25;;
69985;SDS011;57328;52.054;5.294;2023-03-12T02:37:10;8.55;;;3.58;;
69985;SDS011;57328;52.054;5.294;2023-03-12T02:39:37;9.30;;;3.08;;
69985;SDS011;57328;52.054;5.294;2023-03-12T02:42:05;7.72;;;2.72;;
69985;SDS011;57328;52.054;5.294;2023-03-12T02:44:32;7.63;;;3.10;;
69985;SDS011;57328;52.054;5.294;2023-03-12T02:47:01;5.07;;;2.20;;
69985;SDS011;57328;52.054;5.294;2023-03-12T02:49:30;8.05;;;3.05;;
69985;SDS011;57328;52.054;5.294;2023-03-12T02:51:58;8.90;;;3.10;;
69985;SDS011;57328;52.054;5.294;2023-03-12T02:54:25;9.38;;;3.30;;
69985;SDS011;57328;52.054;5.294;2023-03-12T02:56:53;8.30;;;2.90;;
69985;SDS011;57328;52.054;5.294;2023-03-12T02:59:20;17.02;;;3.95;;
69985;SDS011;57328;52.054;5.294;2023-03-12T03:01:50;10.93;;;3.13;;
69985;SDS011;57328;52.054;5.294;2023-03-12T03:04:18;9.80;;;3.25;;
69985;SDS011;57328;52.054;5.294;2023-03-12T03:06:45;7.97;;;3.30;;
69985;SDS011;57328;52.054;5.294;2023-03-12T03:09:13;9.48;;;3.42;;
69985;SDS011;57328;52.054;5.294;2023-03-12T03:11:40;8.75;;;3.00;;
69985;SDS011;57328;52.054;5.294;2023-03-12T03:14:08;7.88;;;3.25;;
69985;SDS011;57328;52.054;5.294;2023-03-12T03:16:35;9.75;;;3.08;;
69985;SDS011;57328;52.054;5.294;2023-03-12T03:19:03;9.55;;;3.70;;
69985;SDS011;57328;52.054;5.294;2023-03-12T03:21:30;4.55;;;2.30;;
69985;SDS011;57328;52.054;5.294;2023-03-12T03:23:57;8.93;;;2.53;;
69985;SDS011;57328;52.054;5.294;2023-03-12T03:26:25;9.80;;;3.30;;
69985;SDS011;57328;52.054;5.294;2023-03-12T03:28:52;8.85;;;3.80;;
69985;SDS011;57328;52.054;5.294;2023-03-12T03:31:20;7.63;;;3.05;;
69985;SDS011;57328;52.054;5.294;2023-03-12T03:33:47;11.27;;;3.55;;
69985;SDS011;57328;52.054;5.294;2023-03-12T03:36:15;12.30;;;3.42;;
69985;SDS011;57328;52.054;5.294;2023-03-12T03:38:42;7.22;;;3.00;;
69985;SDS011;57328;52.054;5.294;2023-03-12T03:41:18;8.00;;;3.13;;
69985;SDS011;57328;52.054;5.294;2023-03-12T03:43:45;6.57;;;2.95;;
69985;SDS011;57328;52.054;5.294;2023-03-12T03:46:13;9.75;;;3.20;;
69985;SDS011;57328;52.054;5.294;2023-03-12T03:48:40;7.53;;;2.67;;
69985;SDS011;57328;52.054;5.294;2023-03-12T03:51:09;7.80;;;3.20;;
69985;SDS011;57328;52.054;5.294;2023-03-12T03:53:37;6.88;;;3.05;;
69985;SDS011;57328;52.054;5.294;2023-03-12T03:56:13;8.00;;;2.92;;
69985;SDS011;57328;52.054;5.294;2023-03-12T03:58:41;7.85;;;2.97;;
69985;SDS011;57328;52.054;5.294;2023-03-12T04:01:08;6.13;;;3.05;;
69985;SDS011;57328;52.054;5.294;2023-03-12T04:03:36;7.72;;;2.95;;
69985;SDS011;57328;52.054;5.294;2023-03-12T04:06:04;10.77;;;3.40;;
69985;SDS011;57328;52.054;5.294;2023-03-12T04:08:32;7.05;;;2.92;;
69985;SDS011;57328;52.054;5.294;2023-03-12T04:11:07;7.72;;;2.75;;
69985;SDS011;57328;52.054;5.294;2023-03-12T04:13:35;8.77;;;3.30;;
69985;SDS011;57328;52.054;5.294;2023-03-12T04:16:02;7.32;;;3.08;;
69985;SDS011;57328;52.054;5.294;2023-03-12T04:18:30;7.38;;;3.50;;
69985;SDS011;57328;52.054;5.294;2023-03-12T04:20:57;8.15;;;4.18;;
69985;SDS011;57328;52.054;5.294;2023-03-12T04:23:24;7.45;;;3.42;;
69985;SDS011;57328;52.054;5.294;2023-03-12T04:25:52;7.10;;;3.40;;
69985;SDS011;57328;52.054;5.294;2023-03-12T04:28:19;7.03;;;3.05;;
69985;SDS011;57328;52.054;5.294;2023-03-12T04:30:52;8.20;;;3.05;;
69985;SDS011;57328;52.054;5.294;2023-03-12T04:33:20;9.02;;;2.80;;
69985;SDS011;57328;52.054;5.294;2023-03-12T04:35:51;9.00;;;3.35;;
69985;SDS011;57328;52.054;5.294;2023-03-12T04:38:19;10.05;;;3.20;;
69985;SDS011;57328;52.054;5.294;2023-03-12T04:40:46;8.18;;;2.80;;
69985;SDS011;57328;52.054;5.294;2023-03-12T04:43:13;9.52;;;3.42;;
69985;SDS011;57328;52.054;5.294;2023-03-12T04:45:41;6.43;;;2.33;;
69985;SDS011;57328;52.054;5.294;2023-03-12T04:48:08;9.77;;;3.75;;
69985;SDS011;57328;52.054;5.294;2023-03-12T04:50:35;10.05;;;3.65;;
69985;SDS011;57328;52.054;5.294;2023-03-12T04:53:02;9.35;;;3.28;;
69985;SDS011;57328;52.054;5.294;2023-03-12T04:55:29;4.82;;;2.53;;
69985;SDS011;57328;52.054;5.294;2023-03-12T04:57:57;8.20;;;3.17;;
69985;SDS011;57328;52.054;5.294;2023-03-12T05:00:24;6.70;;;2.45;;
69985;SDS011;57328;52.054;5.294;2023-03-12T05:02:52;11.43;;;2.88;;
69985;SDS011;57328;52.054;5.294;2023-03-12T05:05:20;7.57;;;2.90;;
69985;SDS011;57328;52.054;5.294;2023-03-12T05:07:47;10.23;;;3.55;;
69985;SDS011;57328;52.054;5.294;2023-03-12T05:10:14;9.15;;;3.03;;
69985;SDS011;57328;52.054;5.294;2023-03-12T05:12:41;9.63;;;3.70;;
69985;SDS011;57328;52.054;5.294;2023-03-12T05:15:08;8.75;;;3.10;;
69985;SDS011;57328;52.054;5.294;2023-03-12T05:17:36;8.43;;;3.22;;
69985;SDS011;57328;52.054;5.294;2023-03-12T05:20:03;8.45;;;3.30;;
69985;SDS011;57328;52.054;5.294;2023-03-12T05:22:31;6.45;;;2.50;;
69985;SDS011;57328;52.054;5.294;2023-03-12T05:24:58;11.40;;;4.22;;
69985;SDS011;57328;52.054;5.294;2023-03-12T05:27:26;6.65;;;3.03;;
69985;SDS011;57328;52.054;5.294;2023-03-12T05:32:22;8.98;;;3.63;;
69985;SDS011;57328;52.054;5.294;2023-03-12T05:34:49;11.77;;;3.65;;
69985;SDS011;57328;52.054;5.294;2023-03-12T05:37:16;10.52;;;3.58;;
69985;SDS011;57328;52.054;5.294;2023-03-12T05:39:43;11.00;;;3.45;;
69985;SDS011;57328;52.054;5.294;2023-03-12T05:42:12;8.57;;;2.53;;
69985;SDS011;57328;52.054;5.294;2023-03-12T05:44:40;8.70;;;3.35;;
69985;SDS011;57328;52.054;5.294;2023-03-12T05:47:07;10.10;;;4.15;;
69985;SDS011;57328;52.054;5.294;2023-03-12T05:49:34;6.90;;;2.45;;
69985;SDS011;57328;52.054;5.294;2023-03-12T05:52:01;9.25;;;3.67;;
69985;SDS011;57328;52.054;5.294;2023-03-12T05:54:29;9.68;;;2.70;;
69985;SDS011;57328;52.054;5.294;2023-03-12T05:56:56;7.22;;;3.10;;
69985;SDS011;57328;52.054;5.294;2023-03-12T05:59:24;10.25;;;3.28;;
69985;SDS011;57328;52.054;5.294;2023-03-12T06:01:51;20.73;;;3.95;;
69985;SDS011;57328;52.054;5.294;2023-03-12T06:04:18;12.80;;;3.90;;
69985;SDS011;57328;52.054;5.294;2023-03-12T06:06:45;8.27;;;3.40;;
69985;SDS011;57328;52.054;5.294;2023-03-12T06:09:13;11.38;;;3.65;;
69985;SDS011;57328;52.054;5.294;2023-03-12T06:11:40;10.35;;;3.38;;
69985;SDS011;57328;52.054;5.294;2023-03-12T06:14:08;7.22;;;3.63;;
69985;SDS011;57328;52.054;5.294;2023-03-12T06:16:35;9.85;;;3.58;;
69985;SDS011;57328;52.054;5.294;2023-03-12T06:19:03;8.35;;;3.10;;
69985;SDS011;57328;52.054;5.294;2023-03-12T06:21:31;11.57;;;3.72;;
69985;SDS011;57328;52.054;5.294;2023-03-12T06:23:59;10.98;;;3.80;;
69985;SDS011;57328;52.054;5.294;2023-03-12T06:26:26;9.90;;;3.97;;
69985;SDS011;57328;52.054;5.294;2023-03-12T06:28:53;5.75;;;2.13;;
69985;SDS011;57328;52.054;5.294;2023-03-12T06:31:21;12.68;;;3.80;;
69985;SDS011;57328;52.054;5.294;2023-03-12T06:33:48;10.52;;;3.83;;
69985;SDS011;57328;52.054;5.294;2023-03-12T06:36:16;12.05;;;4.35;;
69985;SDS011;57328;52.054;5.294;2023-03-12T06:38:43;11.70;;;4.82;;
69985;SDS011;57328;52.054;5.294;2023-03-12T06:41:12;14.88;;;4.03;;
69985;SDS011;57328;52.054;5.294;2023-03-12T06:43:39;12.15;;;4.35;;
69985;SDS011;57328;52.054;5.294;2023-03-12T06:46:08;9.82;;;3.95;;
69985;SDS011;57328;52.054;5.294;2023-03-12T06:48:35;8.75;;;4.45;;
69985;SDS011;57328;52.054;5.294;2023-03-12T06:51:10;13.38;;;4.90;;
69985;SDS011;57328;52.054;5.294;2023-03-12T06:53:38;11.20;;;3.70;;
69985;SDS011;57328;52.054;5.294;2023-03-12T06:56:07;14.07;;;4.05;;
69985;SDS011;57328;52.054;5.294;2023-03-12T06:58:35;12.00;;;4.82;;
69985;SDS011;57328;52.054;5.294;2023-03-12T07:01:02;12.07;;;4.25;;
69985;SDS011;57328;52.054;5.294;2023-03-12T07:03:29;6.70;;;2.70;;
69985;SDS011;57328;52.054;5.294;2023-03-12T07:05:57;8.65;;;3.95;;
69985;SDS011;57328;52.054;5.294;2023-03-12T07:08:24;13.18;;;4.57;;
69985;SDS011;57328;52.054;5.294;2023-03-12T07:10:56;10.85;;;3.97;;
69985;SDS011;57328;52.054;5.294;2023-03-12T07:13:26;13.27;;;4.97;;
69985;SDS011;57328;52.054;5.294;2023-03-12T07:15:53;14.93;;;4.60;;
69985;SDS011;57328;52.054;5.294;2023-03-12T07:18:20;9.80;;;4.13;;
69985;SDS011;57328;52.054;5.294;2023-03-12T07:20:48;11.85;;;4.40;;
69985;SDS011;57328;52.054;5.294;2023-03-12T07:23:15;12.48;;;4.95;;
69985;SDS011;57328;52.054;5.294;2023-03-12T07:25:43;12.80;;;4.13;;
69985;SDS011;57328;52.054;5.294;2023-03-12T07:28:10;15.30;;;5.50;;
69985;SDS011;57328;52.054;5.294;2023-03-12T07:30:38;11.05;;;5.10;;
69985;SDS011;57328;52.054;5.294;2023-03-12T07:33:06;10.88;;;5.45;;
69985;SDS011;57328;52.054;5.294;2023-03-12T07:35:34;11.30;;;5.43;;
69985;SDS011;57328;52.054;5.294;2023-03-12T07:38:04;15.52;;;5.22;;
69985;SDS011;57328;52.054;5.294;2023-03-12T07:40:31;11.55;;;5.25;;
69985;SDS011;57328;52.054;5.294;2023-03-12T07:42:59;12.02;;;5.50;;
69985;SDS011;57328;52.054;5.294;2023-03-12T07:45:26;14.60;;;5.10;;
69985;SDS011;57328;52.054;5.294;2023-03-12T07:47:54;12.15;;;5.57;;
69985;SDS011;57328;52.054;5.294;2023-03-12T07:50:22;13.20;;;5.25;;
69985;SDS011;57328;52.054;5.294;2023-03-12T07:52:49;14.05;;;6.15;;
69985;SDS011;57328;52.054;5.294;2023-03-12T07:55:16;15.15;;;5.90;;
69985;SDS011;57328;52.054;5.294;2023-03-12T07:57:44;14.73;;;6.00;;
69985;SDS011;57328;52.054;5.294;2023-03-12T08:00:12;14.38;;;5.80;;
69985;SDS011;57328;52.054;5.294;2023-03-12T08:02:40;10.57;;;4.45;;
69985;SDS011;57328;52.054;5.294;2023-03-12T08:05:08;12.07;;;5.35;;
69985;SDS011;57328;52.054;5.294;2023-03-12T08:07:35;13.82;;;5.72;;
69985;SDS011;57328;52.054;5.294;2023-03-12T08:10:04;13.55;;;5.85;;
69985;SDS011;57328;52.054;5.294;2023-03-12T08:12:32;14.35;;;6.00;;
69985;SDS011;57328;52.054;5.294;2023-03-12T08:15:00;12.93;;;6.18;;
69985;SDS011;57328;52.054;5.294;2023-03-12T08:17:27;14.77;;;6.45;;
69985;SDS011;57328;52.054;5.294;2023-03-12T08:19:54;12.02;;;6.20;;
69985;SDS011;57328;52.054;5.294;2023-03-12T08:22:21;14.23;;;6.63;;
69985;SDS011;57328;52.054;5.294;2023-03-12T08:24:48;15.15;;;6.63;;
69985;SDS011;57328;52.054;5.294;2023-03-12T08:27:18;13.88;;;6.65;;
69985;SDS011;57328;52.054;5.294;2023-03-12T08:29:45;19.70;;;7.55;;
69985;SDS011;57328;52.054;5.294;2023-03-12T08:32:12;13.73;;;7.13;;
69985;SDS011;57328;52.054;5.294;2023-03-12T08:34:40;14.88;;;7.25;;
69985;SDS011;57328;52.054;5.294;2023-03-12T08:37:07;19.23;;;8.82;;
69985;SDS011;57328;52.054;5.294;2023-03-12T08:39:34;18.35;;;7.60;;
69985;SDS011;57328;52.054;5.294;2023-03-12T08:42:02;19.23;;;7.63;;
69985;SDS011;57328;52.054;5.294;2023-03-12T08:44:29;14.82;;;6.97;;
69985;SDS011;57328;52.054;5.294;2023-03-12T08:46:56;15.85;;;7.45;;
69985;SDS011;57328;52.054;5.294;2023-03-12T08:49:23;16.13;;;7.25;;
69985;SDS011;57328;52.054;5.294;2023-03-12T08:51:51;14.77;;;7.00;;
69985;SDS011;57328;52.054;5.294;2023-03-12T08:54:18;13.88;;;7.18;;
69985;SDS011;57328;52.054;5.294;2023-03-12T08:56:49;16.95;;;8.57;;
69985;SDS011;57328;52.054;5.294;2023-03-12T08:59:17;17.85;;;7.60;;
69985;SDS011;57328;52.054;5.294;2023-03-12T09:01:49;16.45;;;8.13;;
69985;SDS011;57328;52.054;5.294;2023-03-12T09:04:16;22.35;;;7.90;;
69985;SDS011;57328;52.054;5.294;2023-03-12T09:06:43;19.40;;;8.95;;
69985;SDS011;57328;52.054;5.294;2023-03-12T09:09:10;17.20;;;8.50;;
69985;SDS011;57328;52.054;5.294;2023-03-12T09:11:38;21.52;;;8.77;;
69985;SDS011;57328;52.054;5.294;2023-03-12T09:14:06;22.05;;;9.38;;
69985;SDS011;57328;52.054;5.294;2023-03-12T09:16:53;19.95;;;8.77;;
69985;SDS011;57328;52.054;5.294;2023-03-12T09:19:20;24.45;;;9.98;;
69985;SDS011;57328;52.054;5.294;2023-03-12T09:21:47;26.17;;;9.65;;
69985;SDS011;57328;52.054;5.294;2023-03-12T09:24:15;22.90;;;10.52;;
69985;SDS011;57328;52.054;5.294;2023-03-12T09:26:42;22.33;;;10.80;;
69985;SDS011;57328;52.054;5.294;2023-03-12T09:29:09;28.27;;;10.57;;
69985;SDS011;57328;52.054;5.294;2023-03-12T09:31:37;26.65;;;10.77;;
69985;SDS011;57328;52.054;5.294;2023-03-12T09:34:04;22.63;;;10.40;;
69985;SDS011;57328;52.054;5.294;2023-03-12T09:36:31;23.23;;;9.57;;
69985;SDS011;57328;52.054;5.294;2023-03-12T09:38:59;20.92;;;9.23;;
69985;SDS011;57328;52.054;5.294;2023-03-12T09:41:31;21.60;;;9.85;;
69985;SDS011;57328;52.054;5.294;2023-03-12T09:46:32;24.27;;;10.77;;
69985;SDS011;57328;52.054;5.294;2023-03-12T09:49:01;31.10;;;12.15;;
69985;SDS011;57328;52.054;5.294;2023-03-12T09:51:32;28.55;;;11.73;;
69985;SDS011;57328;52.054;5.294;2023-03-12T09:54:02;24.15;;;10.85;;
69985;SDS011;57328;52.054;5.294;2023-03-12T09:56:30;27.88;;;10.52;;
69985;SDS011;57328;52.054;5.294;2023-03-12T09:58:57;25.90;;;11.35;;
69985;SDS011;57328;52.054;5.294;2023-03-12T10:09:22;29.67;;;13.13;;
69985;SDS011;57328;52.054;5.294;2023-03-12T10:14:45;32.53;;;13.27;;
69985;SDS011;57328;52.054;5.294;2023-03-12T10:27:54;30.92;;;13.43;;
69985;SDS011;57328;52.054;5.294;2023-03-12T10:30:27;27.73;;;12.77;;
69985;SDS011;57328;52.054;5.294;2023-03-12T10:32:56;28.95;;;12.43;;
69985;SDS011;57328;52.054;5.294;2023-03-12T10:35:25;30.67;;;12.27;;
69985;SDS011;57328;52.054;5.294;2023-03-12T10:37:54;29.13;;;12.60;;
69985;SDS011;57328;52.054;5.294;2023-03-12T10:40:23;23.92;;;11.15;;
69985;SDS011;57328;52.054;5.294;2023-03-12T10:42:51;27.33;;;11.38;;
69985;SDS011;57328;52.054;5.294;2023-03-12T10:48:06;22.40;;;10.10;;
69985;SDS011;57328;52.054;5.294;2023-03-12T10:50:38;21.95;;;9.00;;
69985;SDS011;57328;52.054;5.294;2023-03-12T10:53:13;28.13;;;10.65;;
69985;SDS011;57328;52.054;5.294;2023-03-12T10:55:58;25.45;;;9.63;;
69985;SDS011;57328;52.054;5.294;2023-03-12T10:58:29;26.33;;;9.50;;
69985;SDS011;57328;52.054;5.294;2023-03-12T11:00:58;34.67;;;11.00;;
69985;SDS011;57328;52.054;5.294;2023-03-12T11:03:26;28.63;;;9.15;;
69985;SDS011;57328;52.054;5.294;2023-03-12T11:05:54;29.10;;;10.00;;
69985;SDS011;57328;52.054;5.294;2023-03-12T11:08:30;22.17;;;8.48;;
69985;SDS011;57328;52.054;5.294;2023-03-12T11:10:58;34.25;;;10.45;;
69985;SDS011;57328;52.054;5.294;2023-03-12T11:15:57;26.95;;;8.57;;
69985;SDS011;57328;52.054;5.294;2023-03-12T11:18:26;20.73;;;7.22;;
69985;SDS011;57328;52.054;5.294;2023-03-12T11:23:37;24.13;;;7.53;;
69985;SDS011;57328;52.054;5.294;2023-03-12T11:26:13;26.35;;;7.10;;
69985;SDS011;57328;52.054;5.294;2023-03-12T11:28:49;22.48;;;6.18;;
69985;SDS011;57328;52.054;5.294;2023-03-12T11:31:24;25.73;;;6.97;;
69985;SDS011;57328;52.054;5.294;2023-03-12T11:33:53;21.67;;;4.63;;
69985;SDS011;57328;52.054;5.294;2023-03-12T11:39:59;19.02;;;6.22;;
69985;SDS011;57328;52.054;5.294;2023-03-12T11:45:13;15.90;;;4.75;;
69985;SDS011;57328;52.054;5.294;2023-03-12T11:53:09;20.95;;;5.40;;
69985;SDS011;57328;52.054;5.294;2023-03-12T11:58:37;24.88;;;6.25;;
69985;SDS011;57328;52.054;5.294;2023-03-12T12:01:49;26.17;;;6.45;;
69985;SDS011;57328;52.054;5.294;2023-03-12T12:16:42;26.25;;;6.35;;
69985;SDS011;57328;52.054;5.294;2023-03-12T12:26:45;23.60;;;5.20;;
69985;SDS011;57328;52.054;5.294;2023-03-12T12:31:49;27.98;;;5.30;;
69985;SDS011;57328;52.054;5.294;2023-03-12T12:36:45;30.05;;;5.50;;
69985;SDS011;57328;52.054;5.294;2023-03-12T12:41:49;22.05;;;3.97;;
69985;SDS011;57328;52.054;5.294;2023-03-12T12:44:24;23.38;;;4.55;;
69985;SDS011;57328;52.054;5.294;2023-03-12T12:46:54;23.45;;;4.82;;
69985;SDS011;57328;52.054;5.294;2023-03-12T12:49:35;22.75;;;4.18;;
69985;SDS011;57328;52.054;5.294;2023-03-12T12:52:06;25.15;;;4.80;;
69985;SDS011;57328;52.054;5.294;2023-03-12T13:01:57;30.20;;;4.95;;
69985;SDS011;57328;52.054;5.294;2023-03-12T13:04:30;25.20;;;4.75;;
69985;SDS011;57328;52.054;5.294;2023-03-12T13:09:35;25.63;;;5.15;;
69985;SDS011;57328;52.054;5.294;2023-03-12T13:12:07;21.02;;;5.10;;
69985;SDS011;57328;52.054;5.294;2023-03-12T13:14:38;21.73;;;4.50;;
69985;SDS011;57328;52.054;5.294;2023-03-12T13:17:07;23.27;;;4.38;;
69985;SDS011;57328;52.054;5.294;2023-03-12T13:19:37;30.23;;;5.82;;
69985;SDS011;57328;52.054;5.294;2023-03-12T13:24:58;26.52;;;4.55;;
69985;SDS011;57328;52.054;5.294;2023-03-12T13:27:33;26.52;;;4.25;;
69985;SDS011;57328;52.054;5.294;2023-03-12T13:45:28;24.77;;;4.68;;
69985;SDS011;57328;52.054;5.294;2023-03-12T13:47:58;26.10;;;3.95;;
69985;SDS011;57328;52.054;5.294;2023-03-12T13:50:26;24.63;;;3.72;;
69985;SDS011;57328;52.054;5.294;2023-03-12T13:53:03;21.38;;;3.80;;
69985;SDS011;57328;52.054;5.294;2023-03-12T13:55:32;24.33;;;3.60;;
69985;SDS011;57328;52.054;5.294;2023-03-12T14:00:30;30.90;;;4.78;;
69985;SDS011;57328;52.054;5.294;2023-03-12T14:14:01;23.25;;;3.55;;
69985;SDS011;57328;52.054;5.294;2023-03-12T14:16:39;24.95;;;3.67;;
69985;SDS011;57328;52.054;5.294;2023-03-12T14:19:22;26.15;;;3.35;;
69985;SDS011;57328;52.054;5.294;2023-03-12T14:21:50;22.33;;;3.40;;
69985;SDS011;57328;52.054;5.294;2023-03-12T14:24:29;22.67;;;3.17;;
69985;SDS011;57328;52.054;5.294;2023-03-12T14:26:58;17.13;;;2.60;;
69985;SDS011;57328;52.054;5.294;2023-03-12T14:29:35;20.73;;;4.00;;
69985;SDS011;57328;52.054;5.294;2023-03-12T14:32:13;24.92;;;3.65;;
69985;SDS011;57328;52.054;5.294;2023-03-12T14:37:54;26.35;;;3.28;;
69985;SDS011;57328;52.054;5.294;2023-03-12T14:40:44;24.25;;;3.17;;
69985;SDS011;57328;52.054;5.294;2023-03-12T14:43:18;24.27;;;3.45;;
69985;SDS011;57328;52.054;5.294;2023-03-12T14:45:45;19.73;;;2.33;;
69985;SDS011;57328;52.054;5.294;2023-03-12T14:48:12;18.60;;;3.30;;
69985;SDS011;57328;52.054;5.294;2023-03-12T14:50:39;16.90;;;3.85;;
69985;SDS011;57328;52.054;5.294;2023-03-12T14:53:17;25.95;;;3.33;;
69985;SDS011;57328;52.054;5.294;2023-03-12T14:55:45;26.73;;;3.67;;
69985;SDS011;57328;52.054;5.294;2023-03-12T14:58:16;21.35;;;3.28;;
69985;SDS011;57328;52.054;5.294;2023-03-12T15:00:43;21.88;;;3.60;;
69985;SDS011;57328;52.054;5.294;2023-03-12T15:03:14;17.98;;;3.13;;
69985;SDS011;57328;52.054;5.294;2023-03-12T15:05:48;25.65;;;3.58;;
69985;SDS011;57328;52.054;5.294;2023-03-12T15:08:16;20.15;;;3.42;;
69985;SDS011;57328;52.054;5.294;2023-03-12T15:10:54;19.20;;;3.85;;
69985;SDS011;57328;52.054;5.294;2023-03-12T15:13:22;24.52;;;3.63;;
69985;SDS011;57328;52.054;5.294;2023-03-12T15:20:46;28.60;;;4.03;;
69985;SDS011;57328;52.054;5.294;2023-03-12T15:23:13;26.23;;;4.22;;
69985;SDS011;57328;52.054;5.294;2023-03-12T15:25:41;30.10;;;5.03;;
69985;SDS011;57328;52.054;5.294;2023-03-12T15:30:37;28.20;;;4.45;;
69985;SDS011;57328;52.054;5.294;2023-03-12T15:33:06;25.98;;;4.07;;
69985;SDS011;57328;52.054;5.294;2023-03-12T15:35:35;22.73;;;4.43;;
69985;SDS011;57328;52.054;5.294;2023-03-12T15:38:03;21.02;;;3.30;;
69985;SDS011;57328;52.054;5.294;2023-03-12T15:40:30;26.27;;;4.25;;
69985;SDS011;57328;52.054;5.294;2023-03-12T15:42:58;17.75;;;2.90;;
69985;SDS011;57328;52.054;5.294;2023-03-12T15:45:37;25.23;;;3.05;;
69985;SDS011;57328;52.054;5.294;2023-03-12T15:50:51;21.30;;;3.08;;
69985;SDS011;57328;52.054;5.294;2023-03-12T15:59:01;22.50;;;3.17;;
69985;SDS011;57328;52.054;5.294;2023-03-12T16:01:28;19.48;;;3.80;;
69985;SDS011;57328;52.054;5.294;2023-03-12T16:03:55;28.67;;;3.70;;
69985;SDS011;57328;52.054;5.294;2023-03-12T16:06:24;28.98;;;3.88;;
69985;SDS011;57328;52.054;5.294;2023-03-12T16:08:55;24.60;;;3.08;;
69985;SDS011;57328;52.054;5.294;2023-03-12T16:13:51;23.23;;;3.75;;
69985;SDS011;57328;52.054;5.294;2023-03-12T16:16:21;25.23;;;4.15;;
69985;SDS011;57328;52.054;5.294;2023-03-12T16:18:48;27.38;;;4.90;;
69985;SDS011;57328;52.054;5.294;2023-03-12T16:21:15;30.83;;;4.28;;
69985;SDS011;57328;52.054;5.294;2023-03-12T16:23:42;29.73;;;3.95;;
69985;SDS011;57328;52.054;5.294;2023-03-12T16:26:10;23.17;;;3.33;;
69985;SDS011;57328;52.054;5.294;2023-03-12T16:28:37;30.55;;;3.80;;
69985;SDS011;57328;52.054;5.294;2023-03-12T16:31:14;28.55;;;3.90;;
69985;SDS011;57328;52.054;5.294;2023-03-12T16:33:41;26.98;;;3.60;;
69985;SDS011;57328;52.054;5.294;2023-03-12T16:36:11;21.00;;;3.13;;
69985;SDS011;57328;52.054;5.294;2023-03-12T16:38:39;32.17;;;4.53;;
69985;SDS011;57328;52.054;5.294;2023-03-12T16:41:08;26.55;;;3.80;;
69985;SDS011;57328;52.054;5.294;2023-03-12T16:43:36;25.23;;;3.10;;
69985;SDS011;57328;52.054;5.294;2023-03-12T16:46:04;29.58;;;4.97;;
69985;SDS011;57328;52.054;5.294;2023-03-12T16:48:34;26.23;;;4.80;;
69985;SDS011;57328;52.054;5.294;2023-03-12T16:51:01;26.13;;;4.32;;
69985;SDS011;57328;52.054;5.294;2023-03-12T16:53:29;25.65;;;3.30;;
69985;SDS011;57328;52.054;5.294;2023-03-12T16:55:57;28.27;;;4.00;;
69985;SDS011;57328;52.054;5.294;2023-03-12T16:58:26;26.55;;;3.85;;
69985;SDS011;57328;52.054;5.294;2023-03-12T17:00:53;30.73;;;3.85;;
69985;SDS011;57328;52.054;5.294;2023-03-12T17:05:51;26.23;;;3.90;;
69985;SDS011;57328;52.054;5.294;2023-03-12T17:08:18;32.80;;;4.88;;
69985;SDS011;57328;52.054;5.294;2023-03-12T17:10:45;23.90;;;3.92;;
69985;SDS011;57328;52.054;5.294;2023-03-12T17:13:23;31.13;;;3.90;;